sensor_id;sensor_type;location;lat;lon;timestamp;temperature;humidity
49148;DHT22;41980;45.550;12.070;2023-05-10T00:03:31;17.00;58.50
49148;DHT22;41980;45.550;12.070;2023-05-10T00:09:33;17.00;58.20
49148;DHT22;41980;45.550;12.070;2023-05-10T00:15:34;17.10;57.90
49148;DHT22;41980;45.550;12.070;2023-05-10T00:21:37;17.10;57.50
49148;DHT22;41980;45.550;12.070;2023-05-10T00:27:39;17.10;57.30
49148;DHT22;41980;45.550;12.070;2023-05-10T00:33:40;17.00;56.80
49148;DHT22;41980;45.550;12.070;2023-05-10T00:39:44;17.00;57.00
49148;DHT22;41980;45.550;12.070;2023-05-10T00:45:46;17.00;56.40
49148;DHT22;41980;45.550;12.070;2023-05-10T00:51:49;17.00;56.60
49148;DHT22;41980;45.550;12.070;2023-05-10T00:57:52;16.90;56.70
49148;DHT22;41980;45.550;12.070;2023-05-10T01:03:55;16.90;56.60
49148;DHT22;41980;45.550;12.070;2023-05-10T01:09:57;16.90;56.40
49148;DHT22;41980;45.550;12.070;2023-05-10T01:15:59;16.90;56.30
49148;DHT22;41980;45.550;12.070;2023-05-10T01:22:06;16.90;55.40
49148;DHT22;41980;45.550;12.070;2023-05-10T01:28:15;16.90;55.90
49148;DHT22;41980;45.550;12.070;2023-05-10T01:34:27;16.80;56.10
49148;DHT22;41980;45.550;12.070;2023-05-10T01:40:39;16.80;56.40
49148;DHT22;41980;45.550;12.070;2023-05-10T01:46:48;16.70;56.70
49148;DHT22;41980;45.550;12.070;2023-05-10T01:52:53;16.70;57.00
49148;DHT22;41980;45.550;12.070;2023-05-10T01:58:56;16.60;57.20
49148;DHT22;41980;45.550;12.070;2023-05-10T02:04:59;16.60;57.70
49148;DHT22;41980;45.550;12.070;2023-05-10T02:11:02;16.50;57.80
49148;DHT22;41980;45.550;12.070;2023-05-10T02:17:07;16.40;58.10
49148;DHT22;41980;45.550;12.070;2023-05-10T02:23:11;16.30;58.90
49148;DHT22;41980;45.550;12.070;2023-05-10T02:29:15;16.20;60.20
49148;DHT22;41980;45.550;12.070;2023-05-10T02:35:17;16.10;60.10
49148;DHT22;41980;45.550;12.070;2023-05-10T02:41:22;16.10;59.70
49148;DHT22;41980;45.550;12.070;2023-05-10T02:47:24;16.00;60.10
49148;DHT22;41980;45.550;12.070;2023-05-10T02:53:31;15.90;60.40
49148;DHT22;41980;45.550;12.070;2023-05-10T02:59:35;15.90;60.00
49148;DHT22;41980;45.550;12.070;2023-05-10T03:05:37;15.80;60.20
49148;DHT22;41980;45.550;12.070;2023-05-10T03:24:04;15.70;61.10
49148;DHT22;41980;45.550;12.070;2023-05-10T03:30:10;15.70;60.50
49148;DHT22;41980;45.550;12.070;2023-05-10T03:36:12;15.60;61.40
49148;DHT22;41980;45.550;12.070;2023-05-10T03:42:14;15.60;60.60
49148;DHT22;41980;45.550;12.070;2023-05-10T03:48:16;15.50;60.90
49148;DHT22;41980;45.550;12.070;2023-05-10T03:54:18;15.50;61.10
49148;DHT22;41980;45.550;12.070;2023-05-10T04:00:21;15.50;61.50
49148;DHT22;41980;45.550;12.070;2023-05-10T04:06:27;15.40;61.80
49148;DHT22;41980;45.550;12.070;2023-05-10T04:12:30;15.30;62.20
49148;DHT22;41980;45.550;12.070;2023-05-10T04:18:32;15.30;63.10
49148;DHT22;41980;45.550;12.070;2023-05-10T04:24:34;15.20;62.10
49148;DHT22;41980;45.550;12.070;2023-05-10T04:30:36;15.30;62.20
49148;DHT22;41980;45.550;12.070;2023-05-10T04:36:38;15.30;62.10
49148;DHT22;41980;45.550;12.070;2023-05-10T04:42:40;15.30;61.90
49148;DHT22;41980;45.550;12.070;2023-05-10T04:48:43;15.30;62.50
49148;DHT22;41980;45.550;12.070;2023-05-10T04:54:45;15.30;62.00
49148;DHT22;41980;45.550;12.070;2023-05-10T05:00:47;15.30;64.10
49148;DHT22;41980;45.550;12.070;2023-05-10T05:06:49;15.30;63.00
49148;DHT22;41980;45.550;12.070;2023-05-10T05:12:51;15.30;63.20
49148;DHT22;41980;45.550;12.070;2023-05-10T05:18:53;15.30;63.10
49148;DHT22;41980;45.550;12.070;2023-05-10T05:24:57;15.40;62.90
49148;DHT22;41980;45.550;12.070;2023-05-10T05:31:00;15.40;63.60
49148;DHT22;41980;45.550;12.070;2023-05-10T05:37:02;15.40;63.40
49148;DHT22;41980;45.550;12.070;2023-05-10T05:43:04;15.40;63.20
49148;DHT22;41980;45.550;12.070;2023-05-10T05:49:06;15.40;63.10
49148;DHT22;41980;45.550;12.070;2023-05-10T05:55:08;15.40;63.00
49148;DHT22;41980;45.550;12.070;2023-05-10T06:01:10;15.40;64.70
49148;DHT22;41980;45.550;12.070;2023-05-10T06:07:12;15.30;64.00
49148;DHT22;41980;45.550;12.070;2023-05-10T06:13:14;15.30;65.30
49148;DHT22;41980;45.550;12.070;2023-05-10T06:19:16;15.30;64.90
49148;DHT22;41980;45.550;12.070;2023-05-10T06:25:18;15.40;64.30
49148;DHT22;41980;45.550;12.070;2023-05-10T06:31:21;15.40;65.00
49148;DHT22;41980;45.550;12.070;2023-05-10T06:37:24;15.40;64.80
49148;DHT22;41980;45.550;12.070;2023-05-10T06:43:26;15.50;65.10
49148;DHT22;41980;45.550;12.070;2023-05-10T06:49:30;15.50;64.50
49148;DHT22;41980;45.550;12.070;2023-05-10T06:55:32;15.60;64.80
49148;DHT22;41980;45.550;12.070;2023-05-10T07:01:34;15.60;64.40
49148;DHT22;41980;45.550;12.070;2023-05-10T07:07:36;15.70;64.50
49148;DHT22;41980;45.550;12.070;2023-05-10T07:13:38;15.80;64.70
49148;DHT22;41980;45.550;12.070;2023-05-10T07:19:44;15.70;64.50
49148;DHT22;41980;45.550;12.070;2023-05-10T07:25:47;15.40;67.00
49148;DHT22;41980;45.550;12.070;2023-05-10T07:31:49;15.20;68.00
49148;DHT22;41980;45.550;12.070;2023-05-10T07:37:51;15.20;67.80
49148;DHT22;41980;45.550;12.070;2023-05-10T07:43:53;15.20;68.70
49148;DHT22;41980;45.550;12.070;2023-05-10T07:49:55;15.10;69.90
49148;DHT22;41980;45.550;12.070;2023-05-10T07:55:58;15.10;68.70
49148;DHT22;41980;45.550;12.070;2023-05-10T08:02:00;15.00;69.90
49148;DHT22;41980;45.550;12.070;2023-05-10T08:08:02;14.90;70.00
49148;DHT22;41980;45.550;12.070;2023-05-10T08:14:04;14.70;74.00
49148;DHT22;41980;45.550;12.070;2023-05-10T08:20:06;14.70;71.30
49148;DHT22;41980;45.550;12.070;2023-05-10T08:26:09;14.70;71.80
49148;DHT22;41980;45.550;12.070;2023-05-10T08:32:12;14.50;72.70
49148;DHT22;41980;45.550;12.070;2023-05-10T08:38:14;14.50;75.40
49148;DHT22;41980;45.550;12.070;2023-05-10T08:44:16;14.50;72.40
49148;DHT22;41980;45.550;12.070;2023-05-10T08:50:20;14.40;72.40
49148;DHT22;41980;45.550;12.070;2023-05-10T08:56:23;14.20;75.00
49148;DHT22;41980;45.550;12.070;2023-05-10T09:02:26;14.10;73.60
49148;DHT22;41980;45.550;12.070;2023-05-10T09:08:28;14.20;74.00
49148;DHT22;41980;45.550;12.070;2023-05-10T09:14:34;14.30;75.60
49148;DHT22;41980;45.550;12.070;2023-05-10T09:20:38;14.20;74.20
49148;DHT22;41980;45.550;12.070;2023-05-10T09:26:45;14.30;75.30
49148;DHT22;41980;45.550;12.070;2023-05-10T09:32:49;14.40;78.80
49148;DHT22;41980;45.550;12.070;2023-05-10T09:38:52;14.50;75.90
49148;DHT22;41980;45.550;12.070;2023-05-10T09:45:02;14.50;76.30
49148;DHT22;41980;45.550;12.070;2023-05-10T09:51:04;14.50;79.00
49148;DHT22;41980;45.550;12.070;2023-05-10T09:57:20;14.50;77.40
49148;DHT22;41980;45.550;12.070;2023-05-10T10:03:25;14.50;79.90
49148;DHT22;41980;45.550;12.070;2023-05-10T10:09:28;14.50;78.20
49148;DHT22;41980;45.550;12.070;2023-05-10T10:15:30;14.60;79.20
49148;DHT22;41980;45.550;12.070;2023-05-10T10:21:33;14.60;78.30
49148;DHT22;41980;45.550;12.070;2023-05-10T10:33:56;14.60;78.30
49148;DHT22;41980;45.550;12.070;2023-05-10T10:40:05;14.60;77.90
49148;DHT22;41980;45.550;12.070;2023-05-10T10:46:23;14.50;78.00
49148;DHT22;41980;45.550;12.070;2023-05-10T10:58:35;14.50;77.60
49148;DHT22;41980;45.550;12.070;2023-05-10T11:04:42;14.50;77.50
49148;DHT22;41980;45.550;12.070;2023-05-10T11:10:49;14.50;78.70
49148;DHT22;41980;45.550;12.070;2023-05-10T11:16:53;14.50;78.80
49148;DHT22;41980;45.550;12.070;2023-05-10T11:22:55;14.60;78.80
49148;DHT22;41980;45.550;12.070;2023-05-10T11:28:58;14.50;77.80
49148;DHT22;41980;45.550;12.070;2023-05-10T11:35:07;14.50;78.20
49148;DHT22;41980;45.550;12.070;2023-05-10T11:41:10;14.60;79.80
49148;DHT22;41980;45.550;12.070;2023-05-10T11:47:13;14.60;78.10
49148;DHT22;41980;45.550;12.070;2023-05-10T11:53:15;14.50;79.70
49148;DHT22;41980;45.550;12.070;2023-05-10T11:59:19;14.40;79.40
49148;DHT22;41980;45.550;12.070;2023-05-10T12:05:22;14.30;80.80
49148;DHT22;41980;45.550;12.070;2023-05-10T12:11:27;14.40;81.20
49148;DHT22;41980;45.550;12.070;2023-05-10T12:17:30;14.30;80.80
49148;DHT22;41980;45.550;12.070;2023-05-10T12:23:32;14.20;81.10
49148;DHT22;41980;45.550;12.070;2023-05-10T12:29:34;14.20;81.10
49148;DHT22;41980;45.550;12.070;2023-05-10T12:41:43;14.30;81.60
49148;DHT22;41980;45.550;12.070;2023-05-10T12:47:45;14.20;81.80
49148;DHT22;41980;45.550;12.070;2023-05-10T12:53:47;14.20;81.90
49148;DHT22;41980;45.550;12.070;2023-05-10T12:59:50;14.20;82.00
49148;DHT22;41980;45.550;12.070;2023-05-10T13:05:51;14.20;83.20
49148;DHT22;41980;45.550;12.070;2023-05-10T13:11:53;14.10;83.40
49148;DHT22;41980;45.550;12.070;2023-05-10T13:17:55;14.10;83.80
49148;DHT22;41980;45.550;12.070;2023-05-10T13:23:57;14.10;82.40
49148;DHT22;41980;45.550;12.070;2023-05-10T13:29:59;14.00;83.30
49148;DHT22;41980;45.550;12.070;2023-05-10T13:36:01;14.00;83.40
49148;DHT22;41980;45.550;12.070;2023-05-10T13:42:05;13.90;83.70
49148;DHT22;41980;45.550;12.070;2023-05-10T13:48:07;13.80;83.50
49148;DHT22;41980;45.550;12.070;2023-05-10T13:54:09;13.80;82.80
49148;DHT22;41980;45.550;12.070;2023-05-10T14:00:12;13.80;83.30
49148;DHT22;41980;45.550;12.070;2023-05-10T14:06:14;13.80;83.50
49148;DHT22;41980;45.550;12.070;2023-05-10T14:12:16;13.70;84.00
49148;DHT22;41980;45.550;12.070;2023-05-10T14:18:18;13.70;83.90
49148;DHT22;41980;45.550;12.070;2023-05-10T14:24:20;13.60;84.00
49148;DHT22;41980;45.550;12.070;2023-05-10T14:30:22;13.60;83.70
49148;DHT22;41980;45.550;12.070;2023-05-10T14:36:24;13.70;83.50
49148;DHT22;41980;45.550;12.070;2023-05-10T14:42:26;13.70;84.00
49148;DHT22;41980;45.550;12.070;2023-05-10T14:48:28;13.70;83.60
49148;DHT22;41980;45.550;12.070;2023-05-10T14:54:30;13.80;85.20
49148;DHT22;41980;45.550;12.070;2023-05-10T15:00:32;13.70;83.80
49148;DHT22;41980;45.550;12.070;2023-05-10T15:06:34;13.70;84.90
49148;DHT22;41980;45.550;12.070;2023-05-10T15:12:37;13.70;85.30
49148;DHT22;41980;45.550;12.070;2023-05-10T15:18:39;13.60;85.00
49148;DHT22;41980;45.550;12.070;2023-05-10T15:24:41;13.70;84.70
49148;DHT22;41980;45.550;12.070;2023-05-10T15:30:43;13.70;85.10
49148;DHT22;41980;45.550;12.070;2023-05-10T15:36:45;13.70;85.80
49148;DHT22;41980;45.550;12.070;2023-05-10T15:42:47;13.70;85.40
49148;DHT22;41980;45.550;12.070;2023-05-10T15:48:49;13.60;85.20
49148;DHT22;41980;45.550;12.070;2023-05-10T15:54:51;13.60;85.30
49148;DHT22;41980;45.550;12.070;2023-05-10T16:00:53;13.50;87.20
49148;DHT22;41980;45.550;12.070;2023-05-10T16:06:55;13.50;87.10
49148;DHT22;41980;45.550;12.070;2023-05-10T16:12:59;13.50;86.30
49148;DHT22;41980;45.550;12.070;2023-05-10T16:19:03;13.50;85.90
49148;DHT22;41980;45.550;12.070;2023-05-10T16:25:05;13.50;86.50
49148;DHT22;41980;45.550;12.070;2023-05-10T16:31:08;13.50;86.10
49148;DHT22;41980;45.550;12.070;2023-05-10T16:37:10;13.50;86.50
49148;DHT22;41980;45.550;12.070;2023-05-10T16:43:12;13.50;87.30
49148;DHT22;41980;45.550;12.070;2023-05-10T16:49:14;13.50;86.70
49148;DHT22;41980;45.550;12.070;2023-05-10T16:55:16;13.40;87.00
49148;DHT22;41980;45.550;12.070;2023-05-10T17:01:18;13.40;87.40
49148;DHT22;41980;45.550;12.070;2023-05-10T17:07:21;13.40;87.10
49148;DHT22;41980;45.550;12.070;2023-05-10T17:13:23;13.40;86.70
49148;DHT22;41980;45.550;12.070;2023-05-10T17:19:27;13.40;87.60
49148;DHT22;41980;45.550;12.070;2023-05-10T17:25:29;13.30;87.80
49148;DHT22;41980;45.550;12.070;2023-05-10T17:31:33;13.30;88.10
49148;DHT22;41980;45.550;12.070;2023-05-10T17:37:35;13.30;87.40
49148;DHT22;41980;45.550;12.070;2023-05-10T17:43:37;13.20;87.40
49148;DHT22;41980;45.550;12.070;2023-05-10T17:49:39;13.20;87.60
49148;DHT22;41980;45.550;12.070;2023-05-10T17:55:41;13.20;87.50
49148;DHT22;41980;45.550;12.070;2023-05-10T18:01:44;13.20;88.30
49148;DHT22;41980;45.550;12.070;2023-05-10T18:07:46;13.20;88.20
49148;DHT22;41980;45.550;12.070;2023-05-10T18:13:50;13.20;88.30
49148;DHT22;41980;45.550;12.070;2023-05-10T18:19:52;13.10;88.10
49148;DHT22;41980;45.550;12.070;2023-05-10T18:25:54;13.10;87.80
49148;DHT22;41980;45.550;12.070;2023-05-10T18:31:57;13.20;89.00
49148;DHT22;41980;45.550;12.070;2023-05-10T18:37:59;13.20;87.80
49148;DHT22;41980;45.550;12.070;2023-05-10T18:44:01;13.10;87.30
49148;DHT22;41980;45.550;12.070;2023-05-10T18:50:04;13.20;88.00
49148;DHT22;41980;45.550;12.070;2023-05-10T18:56:07;13.20;87.80
49148;DHT22;41980;45.550;12.070;2023-05-10T19:02:09;13.20;87.40
49148;DHT22;41980;45.550;12.070;2023-05-10T19:08:11;13.20;87.50
49148;DHT22;41980;45.550;12.070;2023-05-10T19:14:13;13.20;87.60
49148;DHT22;41980;45.550;12.070;2023-05-10T19:20:16;13.20;87.90
49148;DHT22;41980;45.550;12.070;2023-05-10T19:26:18;13.20;88.40
49148;DHT22;41980;45.550;12.070;2023-05-10T19:32:20;13.20;88.20
49148;DHT22;41980;45.550;12.070;2023-05-10T19:38:23;13.10;87.90
49148;DHT22;41980;45.550;12.070;2023-05-10T19:44:25;13.10;88.40
49148;DHT22;41980;45.550;12.070;2023-05-10T19:50:27;13.10;88.40
49148;DHT22;41980;45.550;12.070;2023-05-10T19:56:29;13.10;88.00
49148;DHT22;41980;45.550;12.070;2023-05-10T20:02:31;13.10;88.30
49148;DHT22;41980;45.550;12.070;2023-05-10T20:08:33;13.10;88.10
49148;DHT22;41980;45.550;12.070;2023-05-10T20:14:35;13.10;88.20
49148;DHT22;41980;45.550;12.070;2023-05-10T20:20:38;13.10;88.30
49148;DHT22;41980;45.550;12.070;2023-05-10T20:26:40;13.10;87.90
49148;DHT22;41980;45.550;12.070;2023-05-10T20:32:42;13.10;88.40
49148;DHT22;41980;45.550;12.070;2023-05-10T20:38:44;13.10;88.80
49148;DHT22;41980;45.550;12.070;2023-05-10T20:44:46;13.10;88.70
49148;DHT22;41980;45.550;12.070;2023-05-10T20:50:49;13.10;89.10
49148;DHT22;41980;45.550;12.070;2023-05-10T20:56:55;13.00;88.70
49148;DHT22;41980;45.550;12.070;2023-05-10T21:02:58;13.10;88.70
49148;DHT22;41980;45.550;12.070;2023-05-10T21:09:00;13.10;88.30
49148;DHT22;41980;45.550;12.070;2023-05-10T21:15:07;13.10;87.90
49148;DHT22;41980;45.550;12.070;2023-05-10T21:21:09;13.10;88.60
49148;DHT22;41980;45.550;12.070;2023-05-10T21:27:12;13.10;88.30
49148;DHT22;41980;45.550;12.070;2023-05-10T21:33:14;13.10;87.90
49148;DHT22;41980;45.550;12.070;2023-05-10T21:39:15;13.10;88.20
49148;DHT22;41980;45.550;12.070;2023-05-10T21:45:19;13.10;88.20
49148;DHT22;41980;45.550;12.070;2023-05-10T21:51:23;13.10;88.00
49148;DHT22;41980;45.550;12.070;2023-05-10T21:57:25;13.00;88.40
49148;DHT22;41980;45.550;12.070;2023-05-10T22:03:29;13.10;89.00
49148;DHT22;41980;45.550;12.070;2023-05-10T22:09:31;13.00;88.60
49148;DHT22;41980;45.550;12.070;2023-05-10T22:15:33;13.00;88.30
49148;DHT22;41980;45.550;12.070;2023-05-10T22:21:35;13.00;88.70
49148;DHT22;41980;45.550;12.070;2023-05-10T22:27:37;13.00;88.10
49148;DHT22;41980;45.550;12.070;2023-05-10T22:33:39;13.00;88.50
49148;DHT22;41980;45.550;12.070;2023-05-10T22:39:42;13.00;88.00
49148;DHT22;41980;45.550;12.070;2023-05-10T22:45:44;13.00;88.30
49148;DHT22;41980;45.550;12.070;2023-05-10T22:51:46;13.00;88.20
49148;DHT22;41980;45.550;12.070;2023-05-10T22:57:48;13.00;88.40
49148;DHT22;41980;45.550;12.070;2023-05-10T23:03:50;13.00;88.60
49148;DHT22;41980;45.550;12.070;2023-05-10T23:09:57;12.90;88.10
49148;DHT22;41980;45.550;12.070;2023-05-10T23:16:04;12.90;88.60
49148;DHT22;41980;45.550;12.070;2023-05-10T23:22:07;12.90;88.70
49148;DHT22;41980;45.550;12.070;2023-05-10T23:28:10;12.90;88.60
49148;DHT22;41980;45.550;12.070;2023-05-10T23:34:12;12.80;88.20
49148;DHT22;41980;45.550;12.070;2023-05-10T23:40:14;12.80;88.50
49148;DHT22;41980;45.550;12.070;2023-05-10T23:46:16;12.80;88.50
49148;DHT22;41980;45.550;12.070;2023-05-10T23:52:18;12.70;88.50
49148;DHT22;41980;45.550;12.070;2023-05-10T23:58:23;12.70;88.60
